createdAt,value
2022-08-16T00:02:58.763Z,91738.19
2022-08-16T00:06:02.502Z,91732.03
2022-08-16T00:09:06.124Z,91708.66
2022-08-16T00:12:09.283Z,91714.81
2022-08-16T00:15:17.336Z,91709.75
2022-08-16T00:18:22.136Z,91696.78
2022-08-16T00:21:32.347Z,91689.09
2022-08-16T00:24:35.618Z,91686.41
2022-08-16T00:27:38.846Z,91692.84
2022-08-16T00:30:42.130Z,91693.88
2022-08-16T00:33:50.124Z,91697.72
2022-08-16T00:36:55.970Z,91691.75
2022-08-16T00:39:59.215Z,91681.50
2022-08-16T00:43:03.240Z,91670.06
2022-08-16T00:46:33.885Z,91670.47
2022-08-16T00:49:44.340Z,91670.00
2022-08-16T00:52:50.893Z,91670.88
2022-08-16T00:55:59.513Z,91662.63
2022-08-16T00:59:04.584Z,91662.38
2022-08-16T01:02:30.554Z,91662.63
2022-08-16T01:05:33.617Z,91663.03
2022-08-16T01:08:38.027Z,91670.34
2022-08-16T01:11:54.058Z,91678.34
2022-08-16T01:15:00.834Z,91699.16
2022-08-16T01:18:07.335Z,91706.56
2022-08-16T01:21:39.865Z,91696.56
2022-08-16T01:24:55.443Z,91684.19
2022-08-16T01:28:04.738Z,91697.44
2022-08-16T01:31:09.292Z,91694.41
2022-08-16T01:34:24.854Z,91702.03
2022-08-16T01:37:35.845Z,91702.91
2022-08-16T01:40:40.664Z,91702.06
2022-08-16T01:43:45.742Z,91710.38
2022-08-16T01:46:58.154Z,91701.44
2022-08-16T01:50:43.305Z,91710.72
2022-08-16T01:53:29.409Z,91707.41
2022-08-16T01:56:41.639Z,91697.22
2022-08-16T01:59:45.446Z,91696.31
2022-08-16T02:02:53.910Z,91692.56
2022-08-16T02:05:57.512Z,91698.16
2022-08-16T02:09:01.627Z,91698.25
2022-08-16T02:12:49.483Z,91689.78
2022-08-16T02:15:38.730Z,91688.75
2022-08-16T02:18:48.618Z,91701.38
2022-08-16T02:22:08.862Z,91692.75
2022-08-16T02:25:18.127Z,91693.75
2022-08-16T02:28:23.533Z,91702.13
2022-08-16T02:32:02.653Z,91700.44
2022-08-16T02:34:50.940Z,91684.66
2022-08-16T02:38:08.704Z,91688.41
2022-08-16T02:41:14.411Z,91687.09
2022-08-16T02:44:18.854Z,91693.94
2022-08-16T02:47:26.221Z,91686.75
2022-08-16T02:50:54.053Z,91691.66
2022-08-16T02:53:53.658Z,91692.56
2022-08-16T02:56:59.667Z,91690.97
2022-08-16T03:00:34.372Z,91689.38
2022-08-16T03:04:28.940Z,91685.88
2022-08-16T03:06:57.263Z,91687.25
2022-08-16T03:10:14.528Z,91695.16
2022-08-16T03:13:24.458Z,91696.31
2022-08-16T03:16:38.236Z,91690.22
2022-08-16T03:19:48.367Z,91694.22
2022-08-16T03:23:01.844Z,91685.94
2022-08-16T03:26:06.095Z,91684.69
2022-08-16T03:29:09.837Z,91681.09
2022-08-16T03:32:13.781Z,91685.03
2022-08-16T03:35:20.487Z,91672.81
2022-08-16T03:38:32.745Z,91673.13
2022-08-16T03:41:49.741Z,91671.19
2022-08-16T03:45:03.325Z,91670.31
2022-08-16T03:48:15.195Z,91675.94
2022-08-16T03:51:25.366Z,91666.63
2022-08-16T03:54:36.280Z,91666.94
2022-08-16T03:57:40.743Z,91677.06
2022-08-16T04:00:46.525Z,91665.22
2022-08-16T04:04:00.206Z,91666.81
2022-08-16T04:07:07.393Z,91676.13
2022-08-16T04:10:36.002Z,91670.44
2022-08-16T04:13:59.891Z,91665.31
2022-08-16T04:17:05.589Z,91658.00
2022-08-16T04:20:31.401Z,91663.97
2022-08-16T04:23:40.590Z,91671.06
2022-08-16T04:26:46.555Z,91664.19
2022-08-16T04:29:52.301Z,91659.69
2022-08-16T04:32:56.165Z,91660.81
2022-08-16T04:36:05.013Z,91651.00
2022-08-16T04:39:10.023Z,91657.47
2022-08-16T04:42:26.255Z,91648.78
2022-08-16T04:45:35.711Z,91653.44
2022-08-16T04:48:43.345Z,91668.00
2022-08-16T04:51:53.918Z,91662.88
2022-08-16T04:54:58.861Z,91666.81
2022-08-16T04:58:03.749Z,91658.38
2022-08-16T05:01:58.362Z,91657.03
2022-08-16T05:04:51.138Z,91658.34
2022-08-16T05:07:59.603Z,91658.31
2022-08-16T05:11:09.033Z,91665.97
2022-08-16T05:14:20.193Z,91661.44
2022-08-16T05:17:36.557Z,91659.75
2022-08-16T05:20:54.206Z,91663.44
2022-08-16T05:24:06.150Z,91662.72
2022-08-16T05:27:12.081Z,91666.94
2022-08-16T05:30:34.852Z,91676.81
2022-08-16T05:33:45.401Z,91678.31
2022-08-16T05:36:59.674Z,91682.97
2022-08-16T05:40:13.239Z,91681.34
2022-08-16T05:43:17.948Z,91678.88
2022-08-16T05:46:29.731Z,91678.81
2022-08-16T05:49:42.229Z,91671.47
2022-08-16T05:52:47.977Z,91677.25
2022-08-16T05:55:53.548Z,91676.94
2022-08-16T05:58:56.925Z,91678.03
2022-08-16T06:02:00.079Z,91676.41
2022-08-16T06:05:11.023Z,91694.88
2022-08-16T06:08:31.885Z,91704.41
2022-08-16T06:11:39.175Z,91719.06
2022-08-16T06:14:46.528Z,91717.00
2022-08-16T06:17:56.744Z,91719.25
2022-08-16T06:21:02.343Z,91717.97
2022-08-16T06:24:54.477Z,91721.47
2022-08-16T06:27:39.610Z,91723.78
2022-08-16T06:30:45.227Z,91712.38
2022-08-16T06:33:51.755Z,91706.78
2022-08-16T06:36:59.566Z,91692.66
2022-08-16T06:40:05.517Z,91694.63
2022-08-16T06:43:21.977Z,91690.84
2022-08-16T06:46:43.395Z,91657.63
2022-08-16T06:49:56.033Z,91667.16
2022-08-16T06:53:14.911Z,91674.13
2022-08-16T06:56:28.396Z,91670.13
2022-08-16T06:59:53.202Z,91661.56
2022-08-16T07:03:26.497Z,91675.56
2022-08-16T07:06:32.548Z,91674.16
2022-08-16T07:09:41.657Z,91671.03
2022-08-16T07:12:47.539Z,91663.88
2022-08-16T07:16:12.713Z,91664.66
2022-08-16T07:19:20.753Z,91672.47
2022-08-16T07:22:37.942Z,91680.66
2022-08-16T07:25:53.703Z,91670.19
2022-08-16T07:28:59.088Z,91660.72
2022-08-16T07:32:02.306Z,91667.53
2022-08-16T07:35:08.112Z,91663.22
2022-08-16T07:38:11.815Z,91662.75
2022-08-16T07:41:22.864Z,91665.34
2022-08-16T07:44:50.699Z,91659.25
2022-08-16T07:47:54.600Z,91654.25
2022-08-16T07:51:01.608Z,91654.50
2022-08-16T07:54:17.099Z,91652.13
2022-08-16T07:57:32.269Z,91655.81
2022-08-16T08:00:39.910Z,91648.91
2022-08-16T08:03:49.030Z,91653.22
2022-08-16T08:06:57.519Z,91656.72
2022-08-16T08:10:00.701Z,91658.97
2022-08-16T08:13:04.984Z,91666.72
2022-08-16T08:16:18.590Z,91669.31
2022-08-16T08:19:24.180Z,91670.38
2022-08-16T08:22:30.453Z,91678.72
2022-08-16T08:25:55.061Z,91669.94
2022-08-16T08:29:03.129Z,91668.72
2022-08-16T08:32:58.337Z,91668.25
2022-08-16T08:35:40.164Z,91669.44
2022-08-16T08:38:46.304Z,91663.25
2022-08-16T08:41:55.019Z,91651.25
2022-08-16T08:44:59.683Z,91654.28
2022-08-16T08:48:05.867Z,91649.19
2022-08-16T08:51:11.150Z,91650.75
2022-08-16T08:54:26.991Z,91639.47
2022-08-16T08:57:31.725Z,91644.91
2022-08-16T09:00:52.973Z,91641.69
2022-08-16T09:03:57.731Z,91639.31
2022-08-16T09:07:01.237Z,91644.03
2022-08-16T09:10:20.318Z,91646.00
2022-08-16T09:13:25.384Z,91635.84
2022-08-16T09:17:03.157Z,91637.94
2022-08-16T09:19:55.119Z,91646.69
2022-08-16T09:23:03.939Z,91654.09
2022-08-16T09:26:44.637Z,91652.66
2022-08-16T09:29:44.353Z,91653.22
2022-08-16T09:32:51.733Z,91649.28
2022-08-16T09:35:56.857Z,91645.59
2022-08-16T09:39:02.722Z,91639.38
2022-08-16T09:42:05.833Z,91633.28
2022-08-16T09:45:18.353Z,91615.22
2022-08-16T09:48:36.906Z,91608.13
2022-08-16T09:51:44.790Z,91606.59
2022-08-16T09:54:47.898Z,91607.22
2022-08-16T09:57:53.820Z,91598.47
2022-08-16T10:00:56.968Z,91599.56
2022-08-16T10:04:01.802Z,91606.63
2022-08-16T10:07:14.984Z,91608.41
2022-08-16T10:10:31.059Z,91608.91
2022-08-16T10:13:35.056Z,91603.34
2022-08-16T10:16:38.940Z,91605.22
2022-08-16T10:19:43.256Z,91604.34
2022-08-16T10:22:46.712Z,91594.06
2022-08-16T10:27:16.670Z,91605.56
2022-08-16T10:29:19.867Z,91615.25
2022-08-16T10:32:24.128Z,91615.03
2022-08-16T10:35:33.445Z,91620.41
2022-08-16T10:38:39.103Z,91619.19
2022-08-16T10:41:45.736Z,91616.75
2022-08-16T10:44:53.690Z,91619.94
2022-08-16T10:48:02.867Z,91613.53
2022-08-16T10:51:07.395Z,91614.97
2022-08-16T10:54:21.230Z,91615.78
2022-08-16T10:57:33.321Z,91614.03
2022-08-16T11:00:41.319Z,91616.53
2022-08-16T11:03:47.141Z,91621.97
2022-08-16T11:11:05.343Z,91623.00
2022-08-16T11:13:59.235Z,91627.53
2022-08-16T11:17:10.596Z,91623.59
2022-08-16T11:23:38.052Z,91616.13
2022-08-16T11:30:36.866Z,91619.53
2022-08-16T11:33:57.585Z,91624.47
2022-08-16T11:37:02.757Z,91624.13
2022-08-16T11:40:10.219Z,91621.53
2022-08-16T11:43:21.733Z,91608.44
2022-08-16T11:46:44.972Z,91612.91
2022-08-16T11:49:49.229Z,91608.72
2022-08-16T11:52:53.629Z,91608.56
2022-08-16T11:55:58.839Z,91614.22
2022-08-16T11:59:03.060Z,91610.78
2022-08-16T12:02:32.395Z,91616.53
2022-08-16T12:05:34.478Z,91623.28
2022-08-16T12:08:37.591Z,91634.88
2022-08-16T12:11:41.314Z,91631.72
2022-08-16T12:14:47.049Z,91633.94
2022-08-16T12:17:50.879Z,91637.84
2022-08-16T12:20:58.205Z,91639.00
2022-08-16T12:24:01.636Z,91650.13
2022-08-16T12:27:07.249Z,91654.06
2022-08-16T12:30:21.786Z,91658.34
2022-08-16T12:33:30.065Z,91664.81
2022-08-16T12:36:33.078Z,91665.69
2022-08-16T12:39:36.294Z,91674.50
2022-08-16T12:42:40.031Z,91676.78
2022-08-16T12:45:56.940Z,91681.72
2022-08-16T12:49:04.119Z,91679.44
2022-08-16T12:52:07.202Z,91685.13
2022-08-16T12:55:14.309Z,91679.94
2022-08-16T12:58:47.413Z,91682.81
2022-08-16T13:01:46.636Z,91685.44
2022-08-16T13:04:49.803Z,91685.31
2022-08-16T13:07:54.593Z,91687.97
2022-08-16T13:10:58.688Z,91696.16
2022-08-16T13:14:01.964Z,91692.25
2022-08-16T13:17:17.103Z,91691.09
2022-08-16T13:20:26.758Z,91690.00
2022-08-16T13:23:29.896Z,91676.25
2022-08-16T13:26:33.253Z,91680.31
2022-08-16T13:29:39.934Z,91679.44
2022-08-16T13:32:47.343Z,91683.25
2022-08-16T13:35:57.752Z,91682.34
2022-08-16T13:39:06.641Z,91676.13
2022-08-16T13:42:13.610Z,91683.22
2022-08-16T13:45:17.765Z,91683.78
2022-08-16T13:48:25.967Z,91684.13
2022-08-16T13:51:30.910Z,91686.00
2022-08-16T13:54:34.036Z,91696.34
2022-08-16T13:58:35.306Z,91696.19
2022-08-16T14:01:01.699Z,91701.84
2022-08-16T14:04:06.003Z,91700.06
2022-08-16T14:07:19.867Z,91708.66
2022-08-16T14:10:28.130Z,91713.44
2022-08-16T14:13:31.171Z,91709.88
2022-08-16T14:16:37.203Z,91714.13
2022-08-16T14:19:44.939Z,91717.75
2022-08-16T14:22:52.489Z,91710.13
2022-08-16T14:25:58.285Z,91714.63
2022-08-16T14:29:03.817Z,91710.63
2022-08-16T14:32:09.346Z,91715.63
2022-08-16T14:35:20.761Z,91710.66
2022-08-16T14:38:24.293Z,91700.53
2022-08-16T14:41:32.684Z,91713.88
2022-08-16T14:44:36.684Z,91712.09
2022-08-16T14:47:42.312Z,91716.75
2022-08-16T14:50:45.811Z,91722.16
2022-08-16T14:53:49.817Z,91717.19
2022-08-16T14:56:55.493Z,91710.31
2022-08-16T15:00:04.671Z,91716.66
2022-08-16T15:03:11.278Z,91713.84
2022-08-16T15:06:16.307Z,91712.22
2022-08-16T15:09:19.827Z,91711.94
2022-08-16T15:12:33.472Z,91714.69
2022-08-16T15:15:38.091Z,91720.28
2022-08-16T15:18:41.139Z,91702.84
2022-08-16T15:21:44.196Z,91707.25
2022-08-16T15:24:47.197Z,91699.44
2022-08-16T15:27:55.439Z,91704.09
2022-08-16T15:31:01.021Z,91709.59
2022-08-16T15:34:06.527Z,91714.34
2022-08-16T15:37:17.567Z,91718.16
2022-08-16T15:40:32.166Z,91738.44
2022-08-16T15:43:39.902Z,91770.28
2022-08-16T15:46:55.627Z,91785.41
2022-08-16T15:50:01.883Z,91790.81
2022-08-16T15:53:15.525Z,91785.81
2022-08-16T15:56:18.596Z,91785.56
2022-08-16T15:59:24.582Z,91795.50
2022-08-16T16:02:31.380Z,91804.56
2022-08-16T16:05:36.648Z,91809.25
2022-08-16T16:08:41.727Z,91817.56
2022-08-16T16:11:48.683Z,91817.56
2022-08-16T16:14:53.401Z,91833.31
2022-08-16T16:17:56.867Z,91843.06
2022-08-16T16:21:09.183Z,91837.25
2022-08-16T16:24:21.655Z,91834.81
2022-08-16T16:27:27.369Z,91836.25
2022-08-16T16:30:33.037Z,91841.81
2022-08-16T16:33:50.555Z,91830.97
2022-08-16T16:36:53.636Z,91823.88
2022-08-16T16:39:57.647Z,91826.22
2022-08-16T16:43:04.340Z,91833.56
2022-08-16T16:46:41.333Z,91839.69
2022-08-16T16:49:34.669Z,91834.88
2022-08-16T16:52:47.328Z,91840.56
2022-08-16T16:55:52.265Z,91841.06
2022-08-16T16:59:00.992Z,91846.06
2022-08-16T17:02:41.691Z,91841.44
2022-08-16T17:05:32.560Z,91851.78
2022-08-16T17:08:35.839Z,91864.97
2022-08-16T17:11:41.862Z,91869.28
2022-08-16T17:14:44.877Z,91861.19
2022-08-16T17:17:59.998Z,91858.38
2022-08-16T17:21:06.882Z,91855.34
2022-08-16T17:24:17.365Z,91866.00
2022-08-16T17:27:33.827Z,91869.81
2022-08-16T17:30:44.746Z,91865.38
2022-08-16T17:33:54.679Z,91867.88
2022-08-16T17:36:59.797Z,91869.69
2022-08-16T17:40:04.013Z,91870.66
2022-08-16T17:43:11.195Z,91871.53
2022-08-16T17:46:51.557Z,91867.25
2022-08-16T17:49:40.127Z,91865.66
2022-08-16T17:52:49.180Z,91875.09
2022-08-16T17:55:55.042Z,91870.16
2022-08-16T17:58:58.073Z,91878.38
2022-08-16T18:02:01.148Z,91880.66
2022-08-16T18:05:20.906Z,91864.97
2022-08-16T18:08:26.195Z,91862.44
2022-08-16T18:11:41.166Z,91848.59
2022-08-16T18:14:50.877Z,91851.31
2022-08-16T18:17:55.701Z,91845.41
2022-08-16T18:21:17.420Z,91851.41
2022-08-16T18:24:20.997Z,91848.22
2022-08-16T18:27:26.222Z,91845.72
2022-08-16T18:30:30.301Z,91841.25
2022-08-16T18:33:43.316Z,91832.88
2022-08-16T18:36:47.316Z,91821.53
2022-08-16T18:39:50.377Z,91809.47
2022-08-16T18:42:59.603Z,91797.16
2022-08-16T18:46:02.657Z,91806.41
2022-08-16T18:49:05.887Z,91817.69
2022-08-16T18:52:08.945Z,91836.03
2022-08-16T18:55:13.919Z,91842.03
2022-08-16T18:58:17.901Z,91842.72
2022-08-16T19:01:21.050Z,91817.09
2022-08-16T19:04:55.098Z,91810.06
2022-08-16T19:07:47.144Z,91807.09
2022-08-16T19:10:51.669Z,91813.19
2022-08-16T19:13:55.022Z,91810.72
2022-08-16T19:16:58.188Z,91809.53
2022-08-16T19:20:01.318Z,91821.44
2022-08-16T19:23:10.489Z,91811.94
2022-08-16T19:26:24.511Z,91820.75
2022-08-16T19:29:29.769Z,91818.97
2022-08-16T19:32:33.521Z,91822.47
2022-08-16T19:35:38.138Z,91830.38
2022-08-16T19:38:41.186Z,91829.09
2022-08-16T19:41:52.978Z,91827.03
2022-08-16T19:44:59.895Z,91827.84
2022-08-16T19:48:04.432Z,91819.56
2022-08-16T19:51:09.512Z,91818.41
2022-08-16T19:54:12.565Z,91806.59
2022-08-16T19:57:17.392Z,91818.34
2022-08-16T20:00:20.227Z,91815.22
2022-08-16T20:03:25.054Z,91824.88
2022-08-16T20:06:37.492Z,91830.72
2022-08-16T20:09:42.095Z,91821.03
2022-08-16T20:12:58.263Z,91840.69
2022-08-16T20:16:05.670Z,91843.72
2022-08-16T20:19:08.850Z,91848.16
2022-08-16T20:22:49.821Z,91866.88
2022-08-16T20:25:50.009Z,91868.81
2022-08-16T20:28:55.154Z,91868.00
2022-08-16T20:31:58.573Z,91844.50
2022-08-16T20:35:02.705Z,91837.19
2022-08-16T20:38:05.764Z,91848.03
2022-08-16T20:41:09.362Z,91853.16
2022-08-16T20:44:13.256Z,91847.09
2022-08-16T20:47:16.428Z,91859.13
2022-08-16T20:50:19.656Z,91865.06
2022-08-16T20:53:23.804Z,91860.69
2022-08-16T20:56:27.115Z,91849.97
2022-08-16T20:59:30.604Z,91863.13
2022-08-16T21:02:33.694Z,91861.78
2022-08-16T21:05:41.047Z,91870.88
2022-08-16T21:08:53.522Z,91865.72
2022-08-16T21:11:59.443Z,91854.53
2022-08-16T21:15:08.033Z,91867.34
2022-08-16T21:18:11.019Z,91858.03
2022-08-16T21:21:14.080Z,91854.66
2022-08-16T21:24:17.809Z,91859.13
2022-08-16T21:27:20.926Z,91868.97
2022-08-16T21:30:29.997Z,91881.97
2022-08-16T21:33:35.786Z,91872.56
2022-08-16T21:36:38.826Z,91860.53
2022-08-16T21:39:41.913Z,91854.00
2022-08-16T21:42:45.758Z,91845.59
2022-08-16T21:45:48.950Z,91849.88
2022-08-16T21:48:58.537Z,91858.44
2022-08-16T21:52:03.419Z,91863.44
2022-08-16T21:55:07.689Z,91876.38
2022-08-16T21:58:11.558Z,91882.75
2022-08-16T22:01:14.679Z,91887.06
2022-08-16T22:04:37.730Z,91886.88
2022-08-16T22:07:41.813Z,91897.81
2022-08-16T22:11:07.838Z,91912.41
2022-08-16T22:14:08.540Z,91918.66
2022-08-16T22:17:11.751Z,91913.50
2022-08-16T22:20:14.790Z,91930.44
2022-08-16T22:23:25.104Z,91927.50
2022-08-16T22:26:32.749Z,91922.03
2022-08-16T22:29:35.788Z,91921.38
2022-08-16T22:32:44.936Z,91922.13
2022-08-16T22:35:51.706Z,91931.06
2022-08-16T22:38:57.445Z,91921.53
2022-08-16T22:42:09.011Z,91927.00
2022-08-16T22:45:12.881Z,91932.78
2022-08-16T22:48:17.658Z,91935.44
2022-08-16T22:51:22.936Z,91949.78
2022-08-16T22:54:44.280Z,91941.22
2022-08-16T22:57:49.437Z,91930.00
2022-08-16T23:00:52.398Z,91926.09
2022-08-16T23:03:56.252Z,91921.31
2022-08-16T23:06:59.395Z,91921.56
2022-08-16T23:10:02.458Z,91926.84
2022-08-16T23:13:08.023Z,91922.28
2022-08-16T23:16:11.838Z,91917.81
2022-08-16T23:19:16.849Z,91918.56
2022-08-16T23:22:19.586Z,91924.19
2022-08-16T23:25:30.690Z,91926.88
2022-08-16T23:28:33.693Z,91921.88
2022-08-16T23:31:36.679Z,91920.09
2022-08-16T23:34:41.776Z,91921.34
2022-08-16T23:37:44.973Z,91918.69
2022-08-16T23:40:49.152Z,91928.53
2022-08-16T23:43:52.147Z,91930.34
2022-08-16T23:46:55.267Z,91939.47
2022-08-16T23:50:03.672Z,91936.00
2022-08-16T23:53:14.256Z,91938.97
2022-08-16T23:56:20.811Z,91936.78
2022-08-16T23:59:23.793Z,91942.50
